sensor_id;sensor_type;location;lat;lon;timestamp;temperature;humidity
13682;DHT22;6913;49.892;7.936;2022-09-29T00:00:13;6.60;99.90
13682;DHT22;6913;49.892;7.936;2022-09-29T00:02:40;6.60;99.90
13682;DHT22;6913;49.892;7.936;2022-09-29T00:05:07;6.70;99.90
13682;DHT22;6913;49.892;7.936;2022-09-29T00:07:34;6.70;99.90
13682;DHT22;6913;49.892;7.936;2022-09-29T00:10:03;6.60;99.90
13682;DHT22;6913;49.892;7.936;2022-09-29T00:12:30;6.60;99.90
13682;DHT22;6913;49.892;7.936;2022-09-29T00:14:57;6.60;99.90
13682;DHT22;6913;49.892;7.936;2022-09-29T00:17:23;6.60;99.90
13682;DHT22;6913;49.892;7.936;2022-09-29T00:19:50;6.60;99.90
13682;DHT22;6913;49.892;7.936;2022-09-29T00:22:17;6.70;99.90
13682;DHT22;6913;49.892;7.936;2022-09-29T00:24:45;6.60;99.90
13682;DHT22;6913;49.892;7.936;2022-09-29T00:27:15;6.60;99.90
13682;DHT22;6913;49.892;7.936;2022-09-29T00:29:42;6.60;99.90
13682;DHT22;6913;49.892;7.936;2022-09-29T00:32:09;6.60;99.90
13682;DHT22;6913;49.892;7.936;2022-09-29T00:34:36;6.70;99.90
13682;DHT22;6913;49.892;7.936;2022-09-29T00:37:03;6.80;99.90
13682;DHT22;6913;49.892;7.936;2022-09-29T00:39:29;6.80;99.90
13682;DHT22;6913;49.892;7.936;2022-09-29T00:41:56;6.90;99.90
13682;DHT22;6913;49.892;7.936;2022-09-29T00:44:58;6.80;99.90
13682;DHT22;6913;49.892;7.936;2022-09-29T00:47:26;6.90;99.90
13682;DHT22;6913;49.892;7.936;2022-09-29T00:49:58;6.90;99.90
13682;DHT22;6913;49.892;7.936;2022-09-29T00:52:28;7.00;99.90
13682;DHT22;6913;49.892;7.936;2022-09-29T00:55:00;7.00;99.90
13682;DHT22;6913;49.892;7.936;2022-09-29T00:57:31;7.00;99.90
13682;DHT22;6913;49.892;7.936;2022-09-29T01:00:04;7.00;99.90
13682;DHT22;6913;49.892;7.936;2022-09-29T01:02:33;7.10;99.90
13682;DHT22;6913;49.892;7.936;2022-09-29T01:05:03;7.10;99.90
13682;DHT22;6913;49.892;7.936;2022-09-29T01:07:33;7.10;99.90
13682;DHT22;6913;49.892;7.936;2022-09-29T01:10:00;7.00;99.90
13682;DHT22;6913;49.892;7.936;2022-09-29T01:12:26;7.00;99.90
13682;DHT22;6913;49.892;7.936;2022-09-29T01:14:54;7.00;99.90
13682;DHT22;6913;49.892;7.936;2022-09-29T01:17:23;6.90;99.90
13682;DHT22;6913;49.892;7.936;2022-09-29T01:19:58;6.90;99.90
13682;DHT22;6913;49.892;7.936;2022-09-29T01:23:08;6.90;99.90
13682;DHT22;6913;49.892;7.936;2022-09-29T01:25:59;6.90;99.90
13682;DHT22;6913;49.892;7.936;2022-09-29T01:31:29;6.80;99.90
13682;DHT22;6913;49.892;7.936;2022-09-29T01:34:01;6.70;99.90
13682;DHT22;6913;49.892;7.936;2022-09-29T01:36:38;6.60;99.90
13682;DHT22;6913;49.892;7.936;2022-09-29T01:39:14;6.60;99.90
13682;DHT22;6913;49.892;7.936;2022-09-29T01:41:45;6.50;99.90
13682;DHT22;6913;49.892;7.936;2022-09-29T01:44:20;6.60;99.90
13682;DHT22;6913;49.892;7.936;2022-09-29T01:46:51;6.50;99.90
13682;DHT22;6913;49.892;7.936;2022-09-29T01:49:21;6.40;99.90
13682;DHT22;6913;49.892;7.936;2022-09-29T01:51:52;6.30;99.90
13682;DHT22;6913;49.892;7.936;2022-09-29T01:54:26;6.30;99.90
13682;DHT22;6913;49.892;7.936;2022-09-29T01:57:00;6.20;99.90
13682;DHT22;6913;49.892;7.936;2022-09-29T01:59:32;6.20;99.90
13682;DHT22;6913;49.892;7.936;2022-09-29T02:02:04;6.10;99.90
13682;DHT22;6913;49.892;7.936;2022-09-29T02:04:38;6.00;99.90
13682;DHT22;6913;49.892;7.936;2022-09-29T02:07:10;6.00;99.90
13682;DHT22;6913;49.892;7.936;2022-09-29T02:09:42;5.80;99.90
13682;DHT22;6913;49.892;7.936;2022-09-29T02:12:13;5.80;99.90
13682;DHT22;6913;49.892;7.936;2022-09-29T02:14:44;5.80;99.90
13682;DHT22;6913;49.892;7.936;2022-09-29T02:17:17;6.30;99.90
13682;DHT22;6913;49.892;7.936;2022-09-29T02:19:46;5.80;99.90
13682;DHT22;6913;49.892;7.936;2022-09-29T02:22:15;5.80;99.90
13682;DHT22;6913;49.892;7.936;2022-09-29T02:24:43;5.70;99.90
13682;DHT22;6913;49.892;7.936;2022-09-29T02:27:10;5.60;99.90
13682;DHT22;6913;49.892;7.936;2022-09-29T02:29:38;5.60;99.90
13682;DHT22;6913;49.892;7.936;2022-09-29T02:32:07;5.50;99.90
13682;DHT22;6913;49.892;7.936;2022-09-29T02:34:37;5.50;99.90
13682;DHT22;6913;49.892;7.936;2022-09-29T02:37:16;5.50;99.90
13682;DHT22;6913;49.892;7.936;2022-09-29T02:39:52;5.40;99.90
13682;DHT22;6913;49.892;7.936;2022-09-29T02:42:26;5.40;99.90
13682;DHT22;6913;49.892;7.936;2022-09-29T02:45:07;5.40;99.90
13682;DHT22;6913;49.892;7.936;2022-09-29T02:47:46;5.40;99.90
13682;DHT22;6913;49.892;7.936;2022-09-29T02:50:47;5.40;99.90
13682;DHT22;6913;49.892;7.936;2022-09-29T02:53:26;5.30;99.90
13682;DHT22;6913;49.892;7.936;2022-09-29T02:56:01;5.60;99.90
13682;DHT22;6913;49.892;7.936;2022-09-29T02:58:33;6.00;99.90
13682;DHT22;6913;49.892;7.936;2022-09-29T03:01:03;5.20;99.90
13682;DHT22;6913;49.892;7.936;2022-09-29T03:03:32;5.20;99.90
13682;DHT22;6913;49.892;7.936;2022-09-29T03:06:00;5.10;99.90
13682;DHT22;6913;49.892;7.936;2022-09-29T03:08:27;5.00;99.90
13682;DHT22;6913;49.892;7.936;2022-09-29T03:10:54;4.90;99.90
13682;DHT22;6913;49.892;7.936;2022-09-29T03:13:21;5.70;99.90
13682;DHT22;6913;49.892;7.936;2022-09-29T03:15:47;4.80;99.90
13682;DHT22;6913;49.892;7.936;2022-09-29T03:18:14;4.80;99.90
13682;DHT22;6913;49.892;7.936;2022-09-29T03:20:41;4.80;99.90
13682;DHT22;6913;49.892;7.936;2022-09-29T03:23:09;4.90;99.90
13682;DHT22;6913;49.892;7.936;2022-09-29T03:25:36;4.80;99.90
13682;DHT22;6913;49.892;7.936;2022-09-29T03:28:02;4.80;99.90
13682;DHT22;6913;49.892;7.936;2022-09-29T03:30:29;4.80;99.90
13682;DHT22;6913;49.892;7.936;2022-09-29T03:32:56;4.80;99.90
13682;DHT22;6913;49.892;7.936;2022-09-29T03:35:23;4.80;99.90
13682;DHT22;6913;49.892;7.936;2022-09-29T03:37:50;4.80;99.90
13682;DHT22;6913;49.892;7.936;2022-09-29T03:40:19;4.80;99.90
13682;DHT22;6913;49.892;7.936;2022-09-29T03:42:45;4.80;99.90
13682;DHT22;6913;49.892;7.936;2022-09-29T03:45:12;5.10;99.90
13682;DHT22;6913;49.892;7.936;2022-09-29T03:47:39;4.90;99.90
13682;DHT22;6913;49.892;7.936;2022-09-29T03:50:06;4.70;99.90
13682;DHT22;6913;49.892;7.936;2022-09-29T03:52:33;4.70;99.90
13682;DHT22;6913;49.892;7.936;2022-09-29T03:55:00;4.60;99.90
13682;DHT22;6913;49.892;7.936;2022-09-29T03:57:28;4.60;99.90
13682;DHT22;6913;49.892;7.936;2022-09-29T03:59:55;4.60;99.90
13682;DHT22;6913;49.892;7.936;2022-09-29T04:02:22;4.60;99.90
13682;DHT22;6913;49.892;7.936;2022-09-29T04:04:49;4.60;99.90
13682;DHT22;6913;49.892;7.936;2022-09-29T04:07:15;4.50;99.90
13682;DHT22;6913;49.892;7.936;2022-09-29T04:09:42;4.40;99.90
13682;DHT22;6913;49.892;7.936;2022-09-29T04:12:09;4.50;99.90
13682;DHT22;6913;49.892;7.936;2022-09-29T04:14:38;4.60;99.90
13682;DHT22;6913;49.892;7.936;2022-09-29T04:17:04;4.50;99.90
13682;DHT22;6913;49.892;7.936;2022-09-29T04:19:31;4.30;99.90
13682;DHT22;6913;49.892;7.936;2022-09-29T04:21:58;4.60;99.90
13682;DHT22;6913;49.892;7.936;2022-09-29T04:24:25;4.50;99.90
13682;DHT22;6913;49.892;7.936;2022-09-29T04:26:51;4.50;99.90
13682;DHT22;6913;49.892;7.936;2022-09-29T04:29:18;4.40;99.90
13682;DHT22;6913;49.892;7.936;2022-09-29T04:31:46;4.40;99.90
13682;DHT22;6913;49.892;7.936;2022-09-29T04:34:13;4.40;99.90
13682;DHT22;6913;49.892;7.936;2022-09-29T04:36:40;4.40;99.90
13682;DHT22;6913;49.892;7.936;2022-09-29T04:39:07;4.60;99.90
13682;DHT22;6913;49.892;7.936;2022-09-29T04:41:33;4.40;99.90
13682;DHT22;6913;49.892;7.936;2022-09-29T04:44:04;4.40;99.90
13682;DHT22;6913;49.892;7.936;2022-09-29T04:46:31;4.40;99.90
13682;DHT22;6913;49.892;7.936;2022-09-29T04:48:59;4.40;99.90
13682;DHT22;6913;49.892;7.936;2022-09-29T04:51:26;4.50;99.90
13682;DHT22;6913;49.892;7.936;2022-09-29T04:53:53;4.50;99.90
13682;DHT22;6913;49.892;7.936;2022-09-29T04:56:20;4.50;99.90
13682;DHT22;6913;49.892;7.936;2022-09-29T04:58:46;4.50;99.90
13682;DHT22;6913;49.892;7.936;2022-09-29T05:01:13;5.50;99.90
13682;DHT22;6913;49.892;7.936;2022-09-29T05:03:40;4.60;99.90
13682;DHT22;6913;49.892;7.936;2022-09-29T05:06:09;4.50;99.90
13682;DHT22;6913;49.892;7.936;2022-09-29T05:08:36;4.50;99.90
13682;DHT22;6913;49.892;7.936;2022-09-29T05:11:04;4.50;99.90
13682;DHT22;6913;49.892;7.936;2022-09-29T05:13:31;4.80;99.90
13682;DHT22;6913;49.892;7.936;2022-09-29T05:15:58;4.40;99.90
13682;DHT22;6913;49.892;7.936;2022-09-29T05:18:25;4.40;99.90
13682;DHT22;6913;49.892;7.936;2022-09-29T05:20:52;4.40;99.90
13682;DHT22;6913;49.892;7.936;2022-09-29T05:23:21;4.40;99.90
13682;DHT22;6913;49.892;7.936;2022-09-29T05:25:48;4.40;99.90
13682;DHT22;6913;49.892;7.936;2022-09-29T05:28:14;4.50;99.90
13682;DHT22;6913;49.892;7.936;2022-09-29T05:30:41;4.50;99.90
13682;DHT22;6913;49.892;7.936;2022-09-29T05:33:09;4.40;99.90
13682;DHT22;6913;49.892;7.936;2022-09-29T05:35:35;4.50;99.90
13682;DHT22;6913;49.892;7.936;2022-09-29T05:38:02;4.50;99.90
13682;DHT22;6913;49.892;7.936;2022-09-29T05:40:31;4.50;99.90
13682;DHT22;6913;49.892;7.936;2022-09-29T05:42:58;4.50;99.90
13682;DHT22;6913;49.892;7.936;2022-09-29T05:45:25;4.60;99.90
13682;DHT22;6913;49.892;7.936;2022-09-29T05:47:52;4.60;99.90
13682;DHT22;6913;49.892;7.936;2022-09-29T05:50:19;4.60;99.90
13682;DHT22;6913;49.892;7.936;2022-09-29T05:52:46;4.60;99.90
13682;DHT22;6913;49.892;7.936;2022-09-29T05:55:14;4.70;99.90
13682;DHT22;6913;49.892;7.936;2022-09-29T05:57:46;4.80;99.90
13682;DHT22;6913;49.892;7.936;2022-09-29T06:00:14;4.80;99.90
13682;DHT22;6913;49.892;7.936;2022-09-29T06:02:40;4.90;99.90
13682;DHT22;6913;49.892;7.936;2022-09-29T06:05:07;4.90;99.90
13682;DHT22;6913;49.892;7.936;2022-09-29T06:07:34;5.00;99.90
13682;DHT22;6913;49.892;7.936;2022-09-29T06:10:01;5.00;99.90
13682;DHT22;6913;49.892;7.936;2022-09-29T06:12:33;4.80;99.90
13682;DHT22;6913;49.892;7.936;2022-09-29T06:15:01;5.00;99.90
13682;DHT22;6913;49.892;7.936;2022-09-29T06:17:28;5.10;99.90
13682;DHT22;6913;49.892;7.936;2022-09-29T06:19:55;5.30;99.90
13682;DHT22;6913;49.892;7.936;2022-09-29T06:22:21;5.40;99.90
13682;DHT22;6913;49.892;7.936;2022-09-29T06:24:49;5.50;99.90
13682;DHT22;6913;49.892;7.936;2022-09-29T06:27:15;5.50;99.90
13682;DHT22;6913;49.892;7.936;2022-09-29T06:29:42;5.50;99.90
13682;DHT22;6913;49.892;7.936;2022-09-29T06:32:11;5.60;99.90
13682;DHT22;6913;49.892;7.936;2022-09-29T06:34:37;5.50;99.90
13682;DHT22;6913;49.892;7.936;2022-09-29T06:37:25;5.60;99.90
13682;DHT22;6913;49.892;7.936;2022-09-29T06:40:00;5.60;99.90
13682;DHT22;6913;49.892;7.936;2022-09-29T06:42:27;5.60;99.90
13682;DHT22;6913;49.892;7.936;2022-09-29T06:44:54;5.40;99.90
13682;DHT22;6913;49.892;7.936;2022-09-29T06:47:22;5.30;99.90
13682;DHT22;6913;49.892;7.936;2022-09-29T06:49:50;5.50;99.90
13682;DHT22;6913;49.892;7.936;2022-09-29T06:52:17;5.60;99.90
13682;DHT22;6913;49.892;7.936;2022-09-29T06:54:43;5.60;99.90
13682;DHT22;6913;49.892;7.936;2022-09-29T06:57:10;5.60;99.90
13682;DHT22;6913;49.892;7.936;2022-09-29T06:59:38;5.70;99.90
13682;DHT22;6913;49.892;7.936;2022-09-29T07:02:05;5.70;99.90
13682;DHT22;6913;49.892;7.936;2022-09-29T07:04:33;5.90;99.90
13682;DHT22;6913;49.892;7.936;2022-09-29T07:07:00;5.90;99.90
13682;DHT22;6913;49.892;7.936;2022-09-29T07:09:27;6.00;99.90
13682;DHT22;6913;49.892;7.936;2022-09-29T07:11:53;6.20;99.90
13682;DHT22;6913;49.892;7.936;2022-09-29T07:14:21;6.10;99.90
13682;DHT22;6913;49.892;7.936;2022-09-29T07:16:50;6.00;99.90
13682;DHT22;6913;49.892;7.936;2022-09-29T07:19:17;6.00;99.90
13682;DHT22;6913;49.892;7.936;2022-09-29T07:21:46;6.30;99.90
13682;DHT22;6913;49.892;7.936;2022-09-29T07:24:13;6.40;99.90
13682;DHT22;6913;49.892;7.936;2022-09-29T07:26:40;6.60;99.90
13682;DHT22;6913;49.892;7.936;2022-09-29T07:29:06;6.70;99.90
13682;DHT22;6913;49.892;7.936;2022-09-29T07:31:33;7.00;99.90
13682;DHT22;6913;49.892;7.936;2022-09-29T07:34:00;7.10;99.90
13682;DHT22;6913;49.892;7.936;2022-09-29T07:36:27;7.30;99.90
13682;DHT22;6913;49.892;7.936;2022-09-29T07:38:55;7.50;99.90
13682;DHT22;6913;49.892;7.936;2022-09-29T07:41:22;7.90;99.90
13682;DHT22;6913;49.892;7.936;2022-09-29T07:43:49;7.90;99.90
13682;DHT22;6913;49.892;7.936;2022-09-29T07:46:16;8.00;99.90
13682;DHT22;6913;49.892;7.936;2022-09-29T07:48:42;8.20;99.90
13682;DHT22;6913;49.892;7.936;2022-09-29T07:51:11;8.50;99.90
13682;DHT22;6913;49.892;7.936;2022-09-29T07:53:39;8.50;99.90
13682;DHT22;6913;49.892;7.936;2022-09-29T07:56:09;8.50;99.90
13682;DHT22;6913;49.892;7.936;2022-09-29T07:58:37;8.50;99.90
13682;DHT22;6913;49.892;7.936;2022-09-29T08:01:06;8.70;99.90
13682;DHT22;6913;49.892;7.936;2022-09-29T08:03:35;8.80;99.90
13682;DHT22;6913;49.892;7.936;2022-09-29T08:06:02;8.90;99.90
13682;DHT22;6913;49.892;7.936;2022-09-29T08:08:29;9.10;99.90
13682;DHT22;6913;49.892;7.936;2022-09-29T08:11:02;8.90;99.90
13682;DHT22;6913;49.892;7.936;2022-09-29T08:13:31;8.70;99.90
13682;DHT22;6913;49.892;7.936;2022-09-29T08:15:59;8.90;99.90
13682;DHT22;6913;49.892;7.936;2022-09-29T08:18:27;9.10;99.90
13682;DHT22;6913;49.892;7.936;2022-09-29T08:20:54;9.40;99.90
13682;DHT22;6913;49.892;7.936;2022-09-29T08:23:21;10.10;99.90
13682;DHT22;6913;49.892;7.936;2022-09-29T08:25:49;10.30;99.90
13682;DHT22;6913;49.892;7.936;2022-09-29T08:28:16;11.00;99.90
13682;DHT22;6913;49.892;7.936;2022-09-29T08:30:44;10.80;99.90
13682;DHT22;6913;49.892;7.936;2022-09-29T08:33:11;10.00;99.90
13682;DHT22;6913;49.892;7.936;2022-09-29T08:35:39;10.50;99.90
13682;DHT22;6913;49.892;7.936;2022-09-29T08:38:06;10.90;99.90
13682;DHT22;6913;49.892;7.936;2022-09-29T08:40:33;10.30;99.90
13682;DHT22;6913;49.892;7.936;2022-09-29T08:43:09;9.80;99.90
13682;DHT22;6913;49.892;7.936;2022-09-29T08:45:42;9.50;99.90
13682;DHT22;6913;49.892;7.936;2022-09-29T08:48:14;10.10;99.90
13682;DHT22;6913;49.892;7.936;2022-09-29T08:50:45;10.50;99.90
13682;DHT22;6913;49.892;7.936;2022-09-29T08:53:16;10.70;99.90
13682;DHT22;6913;49.892;7.936;2022-09-29T08:55:50;10.90;99.90
13682;DHT22;6913;49.892;7.936;2022-09-29T08:58:18;11.20;99.90
13682;DHT22;6913;49.892;7.936;2022-09-29T09:00:51;11.60;99.90
13682;DHT22;6913;49.892;7.936;2022-09-29T09:06:15;12.00;99.90
13682;DHT22;6913;49.892;7.936;2022-09-29T09:08:54;12.00;99.90
13682;DHT22;6913;49.892;7.936;2022-09-29T09:11:36;11.90;99.90
13682;DHT22;6913;49.892;7.936;2022-09-29T09:14:18;12.00;99.90
13682;DHT22;6913;49.892;7.936;2022-09-29T09:16:52;12.40;99.90
13682;DHT22;6913;49.892;7.936;2022-09-29T09:19:50;12.90;99.90
13682;DHT22;6913;49.892;7.936;2022-09-29T09:22:21;13.30;99.90
13682;DHT22;6913;49.892;7.936;2022-09-29T09:24:55;12.60;99.90
13682;DHT22;6913;49.892;7.936;2022-09-29T09:27:25;12.90;99.90
13682;DHT22;6913;49.892;7.936;2022-09-29T09:30:02;12.30;99.90
13682;DHT22;6913;49.892;7.936;2022-09-29T09:32:32;11.70;99.90
13682;DHT22;6913;49.892;7.936;2022-09-29T09:35:10;11.90;99.90
13682;DHT22;6913;49.892;7.936;2022-09-29T09:37:44;11.80;99.90
13682;DHT22;6913;49.892;7.936;2022-09-29T09:40:15;12.20;99.90
13682;DHT22;6913;49.892;7.936;2022-09-29T09:42:46;12.70;99.90
13682;DHT22;6913;49.892;7.936;2022-09-29T09:45:23;13.00;99.90
13682;DHT22;6913;49.892;7.936;2022-09-29T09:47:53;12.30;99.90
13682;DHT22;6913;49.892;7.936;2022-09-29T09:50:25;12.50;99.90
13682;DHT22;6913;49.892;7.936;2022-09-29T09:52:55;12.20;99.90
13682;DHT22;6913;49.892;7.936;2022-09-29T09:55:26;12.50;99.90
13682;DHT22;6913;49.892;7.936;2022-09-29T09:58:13;12.70;99.90
13682;DHT22;6913;49.892;7.936;2022-09-29T10:00:46;12.70;99.90
13682;DHT22;6913;49.892;7.936;2022-09-29T10:03:14;12.30;99.90
13682;DHT22;6913;49.892;7.936;2022-09-29T10:05:44;12.30;99.90
13682;DHT22;6913;49.892;7.936;2022-09-29T10:08:15;12.70;99.90
13682;DHT22;6913;49.892;7.936;2022-09-29T10:10:45;12.80;99.90
13682;DHT22;6913;49.892;7.936;2022-09-29T10:13:13;12.20;99.90
13682;DHT22;6913;49.892;7.936;2022-09-29T10:15:44;12.90;99.90
13682;DHT22;6913;49.892;7.936;2022-09-29T10:18:14;13.80;99.90
13682;DHT22;6913;49.892;7.936;2022-09-29T10:20:43;14.10;99.90
13682;DHT22;6913;49.892;7.936;2022-09-29T10:23:31;14.30;99.90
13682;DHT22;6913;49.892;7.936;2022-09-29T10:26:08;13.90;99.90
13682;DHT22;6913;49.892;7.936;2022-09-29T10:28:40;14.00;99.90
13682;DHT22;6913;49.892;7.936;2022-09-29T10:31:24;13.60;99.90
13682;DHT22;6913;49.892;7.936;2022-09-29T10:33:55;13.90;99.90
13682;DHT22;6913;49.892;7.936;2022-09-29T10:36:25;13.20;99.90
13682;DHT22;6913;49.892;7.936;2022-09-29T10:38:55;13.60;99.90
13682;DHT22;6913;49.892;7.936;2022-09-29T10:41:22;14.30;99.90
13682;DHT22;6913;49.892;7.936;2022-09-29T10:43:50;14.40;99.90
13682;DHT22;6913;49.892;7.936;2022-09-29T10:46:49;14.80;99.90
13682;DHT22;6913;49.892;7.936;2022-09-29T10:49:18;15.20;99.90
13682;DHT22;6913;49.892;7.936;2022-09-29T10:52:02;15.70;99.90
13682;DHT22;6913;49.892;7.936;2022-09-29T10:54:31;15.70;99.90
13682;DHT22;6913;49.892;7.936;2022-09-29T10:57:09;15.50;99.90
13682;DHT22;6913;49.892;7.936;2022-09-29T10:59:45;15.70;99.90
13682;DHT22;6913;49.892;7.936;2022-09-29T11:02:20;15.90;99.90
13682;DHT22;6913;49.892;7.936;2022-09-29T11:04:48;16.10;99.90
13682;DHT22;6913;49.892;7.936;2022-09-29T11:07:17;16.00;99.90
13682;DHT22;6913;49.892;7.936;2022-09-29T11:09:44;15.50;99.90
13682;DHT22;6913;49.892;7.936;2022-09-29T11:12:29;14.70;99.90
13682;DHT22;6913;49.892;7.936;2022-09-29T11:14:58;14.50;99.90
13682;DHT22;6913;49.892;7.936;2022-09-29T11:17:26;14.40;99.90
13682;DHT22;6913;49.892;7.936;2022-09-29T11:19:56;15.00;99.90
13682;DHT22;6913;49.892;7.936;2022-09-29T11:25:31;15.90;99.90
13682;DHT22;6913;49.892;7.936;2022-09-29T11:28:20;15.90;99.90
13682;DHT22;6913;49.892;7.936;2022-09-29T11:31:00;15.90;99.90
13682;DHT22;6913;49.892;7.936;2022-09-29T11:33:40;15.90;99.90
13682;DHT22;6913;49.892;7.936;2022-09-29T11:36:16;16.20;99.90
13682;DHT22;6913;49.892;7.936;2022-09-29T11:39:00;16.20;99.90
13682;DHT22;6913;49.892;7.936;2022-09-29T11:41:40;16.30;99.90
13682;DHT22;6913;49.892;7.936;2022-09-29T11:44:27;16.50;99.90
13682;DHT22;6913;49.892;7.936;2022-09-29T11:47:05;16.40;99.90
13682;DHT22;6913;49.892;7.936;2022-09-29T11:52:34;17.00;99.90
13682;DHT22;6913;49.892;7.936;2022-09-29T11:55:25;17.60;99.90
13682;DHT22;6913;49.892;7.936;2022-09-29T11:58:01;17.40;99.90
13682;DHT22;6913;49.892;7.936;2022-09-29T12:00:46;17.70;99.90
13682;DHT22;6913;49.892;7.936;2022-09-29T12:03:33;18.10;99.90
13682;DHT22;6913;49.892;7.936;2022-09-29T12:06:25;17.90;99.90
13682;DHT22;6913;49.892;7.936;2022-09-29T12:09:05;17.90;99.90
13682;DHT22;6913;49.892;7.936;2022-09-29T12:11:44;17.00;99.90
13682;DHT22;6913;49.892;7.936;2022-09-29T12:14:16;16.70;99.90
13682;DHT22;6913;49.892;7.936;2022-09-29T12:16:50;17.20;99.90
13682;DHT22;6913;49.892;7.936;2022-09-29T12:19:20;17.50;99.90
13682;DHT22;6913;49.892;7.936;2022-09-29T12:21:50;17.70;99.90
13682;DHT22;6913;49.892;7.936;2022-09-29T12:24:20;18.10;99.90
13682;DHT22;6913;49.892;7.936;2022-09-29T12:26:52;17.20;99.90
13682;DHT22;6913;49.892;7.936;2022-09-29T12:29:30;17.50;99.90
13682;DHT22;6913;49.892;7.936;2022-09-29T12:32:07;17.40;99.90
13682;DHT22;6913;49.892;7.936;2022-09-29T12:34:41;16.60;99.90
13682;DHT22;6913;49.892;7.936;2022-09-29T12:37:15;16.10;99.90
13682;DHT22;6913;49.892;7.936;2022-09-29T12:39:49;15.40;99.90
13682;DHT22;6913;49.892;7.936;2022-09-29T12:42:36;15.60;99.90
13682;DHT22;6913;49.892;7.936;2022-09-29T12:45:10;16.10;99.90
13682;DHT22;6913;49.892;7.936;2022-09-29T12:47:47;16.60;99.90
13682;DHT22;6913;49.892;7.936;2022-09-29T12:50:18;16.20;99.90
13682;DHT22;6913;49.892;7.936;2022-09-29T12:52:50;15.60;99.90
13682;DHT22;6913;49.892;7.936;2022-09-29T12:55:25;16.00;99.90
13682;DHT22;6913;49.892;7.936;2022-09-29T12:57:57;16.50;99.90
13682;DHT22;6913;49.892;7.936;2022-09-29T13:00:27;16.80;99.90
13682;DHT22;6913;49.892;7.936;2022-09-29T13:03:13;17.10;99.90
13682;DHT22;6913;49.892;7.936;2022-09-29T13:05:57;17.10;99.90
13682;DHT22;6913;49.892;7.936;2022-09-29T13:08:52;16.90;99.90
13682;DHT22;6913;49.892;7.936;2022-09-29T13:11:40;16.90;99.90
13682;DHT22;6913;49.892;7.936;2022-09-29T13:14:37;17.00;99.90
13682;DHT22;6913;49.892;7.936;2022-09-29T13:17:17;17.20;99.90
13682;DHT22;6913;49.892;7.936;2022-09-29T13:20:17;17.40;99.90
13682;DHT22;6913;49.892;7.936;2022-09-29T13:26:26;17.30;99.90
13682;DHT22;6913;49.892;7.936;2022-09-29T13:29:00;17.40;99.90
13682;DHT22;6913;49.892;7.936;2022-09-29T13:31:34;17.60;99.90
13682;DHT22;6913;49.892;7.936;2022-09-29T13:34:02;17.30;99.90
13682;DHT22;6913;49.892;7.936;2022-09-29T13:36:32;17.40;99.90
13682;DHT22;6913;49.892;7.936;2022-09-29T13:39:04;17.40;99.90
13682;DHT22;6913;49.892;7.936;2022-09-29T13:41:35;17.00;99.90
13682;DHT22;6913;49.892;7.936;2022-09-29T13:44:19;16.60;99.90
13682;DHT22;6913;49.892;7.936;2022-09-29T13:46:50;16.80;99.90
13682;DHT22;6913;49.892;7.936;2022-09-29T13:49:37;16.60;99.90
13682;DHT22;6913;49.892;7.936;2022-09-29T13:52:28;16.80;99.90
13682;DHT22;6913;49.892;7.936;2022-09-29T13:57:57;16.80;99.90
13682;DHT22;6913;49.892;7.936;2022-09-29T14:00:24;17.00;99.90
13682;DHT22;6913;49.892;7.936;2022-09-29T14:03:22;17.10;99.90
13682;DHT22;6913;49.892;7.936;2022-09-29T14:05:55;15.90;99.90
13682;DHT22;6913;49.892;7.936;2022-09-29T14:08:26;15.80;99.90
13682;DHT22;6913;49.892;7.936;2022-09-29T14:11:02;16.40;99.90
13682;DHT22;6913;49.892;7.936;2022-09-29T14:13:33;16.60;99.90
13682;DHT22;6913;49.892;7.936;2022-09-29T14:16:17;16.60;99.90
13682;DHT22;6913;49.892;7.936;2022-09-29T14:18:54;16.10;99.90
13682;DHT22;6913;49.892;7.936;2022-09-29T14:21:47;16.50;99.90
13682;DHT22;6913;49.892;7.936;2022-09-29T14:24:40;16.80;99.90
13682;DHT22;6913;49.892;7.936;2022-09-29T14:27:28;16.80;99.90
13682;DHT22;6913;49.892;7.936;2022-09-29T14:30:15;16.60;99.90
13682;DHT22;6913;49.892;7.936;2022-09-29T14:32:47;16.40;99.90
13682;DHT22;6913;49.892;7.936;2022-09-29T14:35:23;16.60;99.90
13682;DHT22;6913;49.892;7.936;2022-09-29T14:37:58;16.30;99.90
13682;DHT22;6913;49.892;7.936;2022-09-29T14:40:26;16.40;99.90
13682;DHT22;6913;49.892;7.936;2022-09-29T14:43:05;16.40;99.90
13682;DHT22;6913;49.892;7.936;2022-09-29T14:45:40;16.70;99.90
13682;DHT22;6913;49.892;7.936;2022-09-29T14:48:34;16.50;99.90
13682;DHT22;6913;49.892;7.936;2022-09-29T14:51:27;15.50;99.90
13682;DHT22;6913;49.892;7.936;2022-09-29T14:54:19;15.20;99.90
13682;DHT22;6913;49.892;7.936;2022-09-29T14:56:56;15.10;99.90
13682;DHT22;6913;49.892;7.936;2022-09-29T14:59:38;15.30;99.90
13682;DHT22;6913;49.892;7.936;2022-09-29T15:02:20;14.70;99.90
13682;DHT22;6913;49.892;7.936;2022-09-29T15:04:48;14.40;99.90
13682;DHT22;6913;49.892;7.936;2022-09-29T15:07:18;14.40;99.90
13682;DHT22;6913;49.892;7.936;2022-09-29T15:09:48;13.80;99.90
13682;DHT22;6913;49.892;7.936;2022-09-29T15:12:20;14.00;99.90
13682;DHT22;6913;49.892;7.936;2022-09-29T15:14:47;14.00;99.90
13682;DHT22;6913;49.892;7.936;2022-09-29T15:17:20;14.00;99.90
13682;DHT22;6913;49.892;7.936;2022-09-29T15:19:52;13.80;99.90
13682;DHT22;6913;49.892;7.936;2022-09-29T15:23:00;13.60;99.90
13682;DHT22;6913;49.892;7.936;2022-09-29T15:25:31;13.40;99.90
13682;DHT22;6913;49.892;7.936;2022-09-29T15:28:01;13.30;99.90
13682;DHT22;6913;49.892;7.936;2022-09-29T15:30:29;13.40;99.90
13682;DHT22;6913;49.892;7.936;2022-09-29T15:33:12;13.10;99.90
13682;DHT22;6913;49.892;7.936;2022-09-29T15:35:42;13.20;99.90
13682;DHT22;6913;49.892;7.936;2022-09-29T15:38:27;13.20;99.90
13682;DHT22;6913;49.892;7.936;2022-09-29T15:40:58;12.90;99.90
13682;DHT22;6913;49.892;7.936;2022-09-29T15:43:27;12.80;99.90
13682;DHT22;6913;49.892;7.936;2022-09-29T15:45:56;12.70;99.90
13682;DHT22;6913;49.892;7.936;2022-09-29T15:48:25;12.60;99.90
13682;DHT22;6913;49.892;7.936;2022-09-29T15:50:52;12.80;99.90
13682;DHT22;6913;49.892;7.936;2022-09-29T15:53:22;12.80;99.90
13682;DHT22;6913;49.892;7.936;2022-09-29T15:55:50;12.70;99.90
13682;DHT22;6913;49.892;7.936;2022-09-29T15:58:34;12.60;99.90
13682;DHT22;6913;49.892;7.936;2022-09-29T16:01:03;12.50;99.90
13682;DHT22;6913;49.892;7.936;2022-09-29T16:03:36;12.20;99.90
13682;DHT22;6913;49.892;7.936;2022-09-29T16:06:12;12.30;99.90
13682;DHT22;6913;49.892;7.936;2022-09-29T16:08:44;12.20;99.90
13682;DHT22;6913;49.892;7.936;2022-09-29T16:11:19;12.00;99.90
13682;DHT22;6913;49.892;7.936;2022-09-29T16:13:49;12.20;99.90
13682;DHT22;6913;49.892;7.936;2022-09-29T16:16:25;11.80;99.90
13682;DHT22;6913;49.892;7.936;2022-09-29T16:18:53;11.90;99.90
13682;DHT22;6913;49.892;7.936;2022-09-29T16:21:24;12.00;99.90
13682;DHT22;6913;49.892;7.936;2022-09-29T16:24:05;12.10;99.90
13682;DHT22;6913;49.892;7.936;2022-09-29T16:26:34;12.20;99.90
13682;DHT22;6913;49.892;7.936;2022-09-29T16:29:21;12.00;99.90
13682;DHT22;6913;49.892;7.936;2022-09-29T16:31:49;12.00;99.90
13682;DHT22;6913;49.892;7.936;2022-09-29T16:34:26;12.20;99.90
13682;DHT22;6913;49.892;7.936;2022-09-29T16:36:54;12.30;99.90
13682;DHT22;6913;49.892;7.936;2022-09-29T16:39:24;12.50;99.90
13682;DHT22;6913;49.892;7.936;2022-09-29T16:41:53;12.40;99.90
13682;DHT22;6913;49.892;7.936;2022-09-29T16:44:26;12.50;99.90